createdAt,value
2022-08-25T00:00:28.612Z,90.40
2022-08-25T00:02:57.967Z,90.80
2022-08-25T00:05:29.448Z,91.10
2022-08-25T00:08:00.771Z,91.60
2022-08-25T00:10:29.363Z,91.70
2022-08-25T00:12:58.485Z,91.50
2022-08-25T00:15:26.682Z,91.50
2022-08-25T00:17:54.570Z,91.70
2022-08-25T00:20:22.701Z,91.50
2022-08-25T00:22:50.641Z,91.40
2022-08-25T00:25:18.909Z,91.40
2022-08-25T00:27:47.561Z,91.50
2022-08-25T00:30:17.618Z,91.50
2022-08-25T00:32:48.877Z,91.30
2022-08-25T00:35:23.443Z,90.90
2022-08-25T00:37:51.250Z,90.70
2022-08-25T00:40:19.200Z,90.80
2022-08-25T00:42:47.044Z,91.10
2022-08-25T00:45:16.405Z,91.20
2022-08-25T00:47:44.162Z,91.50
2022-08-25T00:50:13.226Z,91.90
2022-08-25T00:52:44.727Z,92.30
2022-08-25T00:55:17.506Z,92.20
2022-08-25T00:57:47.787Z,92.10
2022-08-25T01:00:21.148Z,92.00
2022-08-25T01:02:49.184Z,91.90
2022-08-25T01:05:18.127Z,91.80
2022-08-25T01:07:46.638Z,91.60
2022-08-25T01:10:15.191Z,91.80
2022-08-25T01:12:43.159Z,92.10
2022-08-25T01:15:13.526Z,92.20
2022-08-25T01:17:48.920Z,92.60
2022-08-25T01:20:19.593Z,93.00
2022-08-25T01:22:55.093Z,93.40
2022-08-25T01:25:34.905Z,94.20
2022-08-25T01:28:03.414Z,94.00
2022-08-25T01:30:31.403Z,94.30
2022-08-25T01:32:59.379Z,94.80
2022-08-25T01:35:27.130Z,95.20
2022-08-25T01:37:56.215Z,95.30
2022-08-25T01:40:24.074Z,95.80
2022-08-25T01:43:03.283Z,96.10
2022-08-25T01:45:31.018Z,96.10
2022-08-25T01:47:58.768Z,96.30
2022-08-25T01:50:26.796Z,96.60
2022-08-25T01:53:01.523Z,96.50
2022-08-25T01:55:29.446Z,96.40
2022-08-25T01:57:59.905Z,95.80
2022-08-25T02:00:27.756Z,95.40
2022-08-25T02:02:55.745Z,94.70
2022-08-25T02:05:23.973Z,94.60
2022-08-25T02:07:52.057Z,95.00
2022-08-25T02:10:22.358Z,94.90
2022-08-25T02:12:51.655Z,94.50
2022-08-25T02:15:22.331Z,94.40
2022-08-25T02:17:50.168Z,95.00
2022-08-25T02:20:18.948Z,95.40
2022-08-25T02:22:51.190Z,95.20
2022-08-25T02:25:26.245Z,95.50
2022-08-25T02:27:54.214Z,95.50
2022-08-25T02:30:22.135Z,95.90
2022-08-25T02:32:50.098Z,96.80
2022-08-25T02:35:18.314Z,97.60
2022-08-25T02:37:46.277Z,97.90
2022-08-25T02:40:14.658Z,98.00
2022-08-25T02:42:44.644Z,97.50
2022-08-25T02:45:12.465Z,97.70
2022-08-25T02:47:40.408Z,97.90
2022-08-25T02:50:09.838Z,97.80
2022-08-25T02:52:38.326Z,97.20
2022-08-25T02:55:08.254Z,97.00
2022-08-25T02:57:36.051Z,97.30
2022-08-25T03:00:06.759Z,97.20
2022-08-25T03:02:34.826Z,97.10
2022-08-25T03:05:03.139Z,97.30
2022-08-25T03:07:31.120Z,97.30
2022-08-25T03:10:07.158Z,97.70
2022-08-25T03:12:35.294Z,98.10
2022-08-25T03:15:03.083Z,97.90
2022-08-25T03:17:34.310Z,98.00
2022-08-25T03:20:05.635Z,98.10
2022-08-25T03:22:33.903Z,98.40
2022-08-25T03:25:16.919Z,98.80
2022-08-25T03:27:46.714Z,99.00
2022-08-25T03:30:14.459Z,98.50
2022-08-25T03:32:43.820Z,97.90
2022-08-25T03:35:11.864Z,98.00
2022-08-25T03:37:39.787Z,97.90
2022-08-25T03:40:15.253Z,98.10
2022-08-25T03:42:45.588Z,98.10
2022-08-25T03:45:14.614Z,98.10
2022-08-25T03:47:46.403Z,98.10
2022-08-25T03:50:15.914Z,97.60
2022-08-25T03:52:43.779Z,97.50
2022-08-25T03:55:14.435Z,97.80
2022-08-25T03:57:42.384Z,98.00
2022-08-25T04:00:12.845Z,98.00
2022-08-25T04:02:41.601Z,97.40
2022-08-25T04:05:11.529Z,97.60
2022-08-25T04:07:39.703Z,97.70
2022-08-25T04:10:09.978Z,97.60
2022-08-25T04:12:38.382Z,98.00
2022-08-25T04:15:07.874Z,98.00
2022-08-25T04:17:38.873Z,98.20
2022-08-25T04:20:08.960Z,98.40
2022-08-25T04:22:38.811Z,99.00
2022-08-25T04:25:08.142Z,99.70
2022-08-25T04:27:37.192Z,99.90
2022-08-25T04:30:06.925Z,99.30
2022-08-25T04:32:36.157Z,99.00
2022-08-25T04:35:04.345Z,99.10
2022-08-25T04:37:33.288Z,99.30
2022-08-25T04:40:02.650Z,99.50
2022-08-25T04:42:30.489Z,99.60
2022-08-25T04:44:58.355Z,99.70
2022-08-25T04:47:26.375Z,99.90
2022-08-25T04:49:55.896Z,99.60
2022-08-25T04:52:23.664Z,99.00
2022-08-25T04:54:51.623Z,99.20
2022-08-25T04:57:20.743Z,99.20
2022-08-25T04:59:48.683Z,99.30
2022-08-25T05:02:16.464Z,99.30
2022-08-25T05:04:44.272Z,99.70
2022-08-25T05:07:12.023Z,99.70
2022-08-25T05:09:39.784Z,99.70
2022-08-25T05:12:07.908Z,99.70
2022-08-25T05:14:39.609Z,99.90
2022-08-25T05:17:07.827Z,99.90
2022-08-25T05:19:36.091Z,99.90
2022-08-25T05:22:04.030Z,99.90
2022-08-25T05:24:31.827Z,99.90
2022-08-25T05:26:59.845Z,99.90
2022-08-25T05:29:27.922Z,99.90
2022-08-25T05:31:57.201Z,99.90
2022-08-25T05:34:25.670Z,99.90
2022-08-25T05:36:53.413Z,99.90
2022-08-25T05:39:21.211Z,99.90
2022-08-25T05:41:49.072Z,99.90
2022-08-25T05:44:20.933Z,99.90
2022-08-25T05:46:49.585Z,99.90
2022-08-25T05:49:18.701Z,99.90
2022-08-25T05:51:46.462Z,99.90
2022-08-25T05:54:14.206Z,99.90
2022-08-25T05:56:41.981Z,99.90
2022-08-25T05:59:10.415Z,99.90
2022-08-25T06:01:58.475Z,99.90
2022-08-25T06:04:27.803Z,99.90
2022-08-25T06:06:55.650Z,99.90
2022-08-25T06:09:24.207Z,99.90
2022-08-25T06:11:54.954Z,99.90
2022-08-25T06:14:23.928Z,99.90
2022-08-25T06:16:52.100Z,99.90
2022-08-25T06:19:21.147Z,99.90
2022-08-25T06:21:50.749Z,99.90
2022-08-25T06:24:18.558Z,99.90
2022-08-25T06:26:46.447Z,99.90
2022-08-25T06:29:14.863Z,99.90
2022-08-25T06:31:43.103Z,99.90
2022-08-25T06:34:11.759Z,99.90
2022-08-25T06:36:40.113Z,99.90
2022-08-25T06:39:10.702Z,99.90
2022-08-25T06:41:38.821Z,99.90
2022-08-25T06:44:07.448Z,99.90
2022-08-25T06:46:36.944Z,99.90
2022-08-25T06:49:05.666Z,99.90
2022-08-25T06:51:35.862Z,99.90
2022-08-25T06:54:04.499Z,99.90
2022-08-25T06:56:34.218Z,99.90
2022-08-25T06:59:02.521Z,99.90
2022-08-25T07:01:31.287Z,99.90
2022-08-25T07:04:03.741Z,99.90
2022-08-25T07:06:35.334Z,99.90
2022-08-25T07:09:06.419Z,99.90
2022-08-25T07:11:35.883Z,99.90
2022-08-25T07:14:04.214Z,99.90
2022-08-25T07:16:32.803Z,99.90
2022-08-25T07:19:01.354Z,99.90
2022-08-25T07:21:33.441Z,99.90
2022-08-25T07:24:05.839Z,99.90
2022-08-25T07:26:38.592Z,99.90
2022-08-25T07:29:09.509Z,99.90
2022-08-25T07:31:37.687Z,99.90
2022-08-25T07:34:23.677Z,99.90
2022-08-25T07:36:53.546Z,99.90
2022-08-25T07:39:22.183Z,99.90
2022-08-25T07:41:52.543Z,99.90
2022-08-25T07:44:22.023Z,99.90
2022-08-25T07:46:51.415Z,99.90
2022-08-25T07:49:23.091Z,99.90
2022-08-25T07:52:03.670Z,99.90
2022-08-25T07:54:34.793Z,99.90
2022-08-25T07:57:05.173Z,99.90
2022-08-25T07:59:39.614Z,99.90
2022-08-25T08:02:15.979Z,99.90
2022-08-25T08:04:48.743Z,99.90
2022-08-25T08:07:18.637Z,99.90
2022-08-25T08:09:48.700Z,99.90
2022-08-25T08:12:22.808Z,99.90
2022-08-25T08:14:50.896Z,99.90
2022-08-25T08:17:19.249Z,99.70
2022-08-25T08:19:47.336Z,99.30
2022-08-25T08:22:15.944Z,99.70
2022-08-25T08:24:54.919Z,99.20
2022-08-25T08:27:26.852Z,99.10
2022-08-25T08:29:55.007Z,98.60
2022-08-25T08:32:35.482Z,98.70
2022-08-25T08:35:11.223Z,98.50
2022-08-25T08:37:42.034Z,97.60
2022-08-25T08:40:11.773Z,97.20
2022-08-25T08:42:57.751Z,96.50
2022-08-25T08:45:40.671Z,95.80
2022-08-25T08:48:35.517Z,96.10
2022-08-25T08:51:17.183Z,96.40
2022-08-25T08:53:49.403Z,95.90
2022-08-25T08:56:21.081Z,95.00
2022-08-25T08:58:53.886Z,95.40
2022-08-25T09:01:28.870Z,94.80
2022-08-25T09:04:03.423Z,95.00
2022-08-25T09:06:39.277Z,94.50
2022-08-25T09:09:07.689Z,93.90
2022-08-25T09:11:50.350Z,94.10
2022-08-25T09:14:30.908Z,93.90
2022-08-25T09:17:06.122Z,94.60
2022-08-25T09:20:18.843Z,94.70
2022-08-25T09:22:58.897Z,93.60
2022-08-25T09:25:52.360Z,93.00
2022-08-25T09:28:26.871Z,92.30
2022-08-25T09:31:00.714Z,92.30
2022-08-25T09:33:31.153Z,92.60
2022-08-25T09:36:05.956Z,91.90
2022-08-25T09:38:34.915Z,92.40
2022-08-25T09:41:03.710Z,91.70
2022-08-25T09:43:34.684Z,91.60
2022-08-25T09:46:11.555Z,91.20
2022-08-25T09:48:46.367Z,91.10
2022-08-25T09:51:20.506Z,91.50
2022-08-25T09:53:54.652Z,91.50
2022-08-25T09:56:24.295Z,90.30
2022-08-25T09:58:54.928Z,90.40
2022-08-25T10:01:25.064Z,90.30
2022-08-25T10:04:01.754Z,90.50
2022-08-25T10:06:37.532Z,90.00
2022-08-25T10:09:08.574Z,90.40
2022-08-25T10:11:40.342Z,90.40
2022-08-25T10:14:18.519Z,89.40
2022-08-25T10:16:48.830Z,88.60
2022-08-25T10:19:26.205Z,87.00
2022-08-25T10:22:06.367Z,87.00
2022-08-25T10:24:35.007Z,87.70
2022-08-25T10:27:13.491Z,87.40
2022-08-25T10:30:00.809Z,86.40
2022-08-25T10:32:46.192Z,86.50
2022-08-25T10:35:19.253Z,85.50
2022-08-25T10:38:01.742Z,85.30
2022-08-25T10:40:36.399Z,84.90
2022-08-25T10:43:12.006Z,82.00
2022-08-25T10:45:45.692Z,82.90
2022-08-25T10:48:41.430Z,82.50
2022-08-25T10:51:27.691Z,81.10
2022-08-25T10:54:03.649Z,80.20
2022-08-25T10:56:40.227Z,79.10
2022-08-25T10:59:26.871Z,77.60
2022-08-25T11:02:25.155Z,78.40
2022-08-25T11:05:01.035Z,78.30
2022-08-25T11:07:34.408Z,78.10
2022-08-25T11:10:09.735Z,77.00
2022-08-25T11:12:43.960Z,77.10
2022-08-25T11:15:15.968Z,77.00
2022-08-25T11:17:51.128Z,77.10
2022-08-25T11:20:26.862Z,76.30
2022-08-25T11:23:08.262Z,76.50
2022-08-25T11:25:42.582Z,76.20
2022-08-25T11:28:14.590Z,75.60
2022-08-25T11:30:44.372Z,74.50
2022-08-25T11:33:15.492Z,76.70
2022-08-25T11:35:51.053Z,76.10
2022-08-25T11:38:33.259Z,75.30
2022-08-25T11:41:11.527Z,73.20
2022-08-25T11:43:59.604Z,72.10
2022-08-25T11:46:45.751Z,74.20
2022-08-25T11:49:33.671Z,74.10
2022-08-25T11:52:03.549Z,73.80
2022-08-25T11:54:38.702Z,73.60
2022-08-25T11:57:18.878Z,74.20
2022-08-25T12:00:10.475Z,73.60
2022-08-25T12:02:42.586Z,72.70
2022-08-25T12:05:33.245Z,71.70
2022-08-25T12:08:25.391Z,71.10
2022-08-25T12:10:59.777Z,72.40
2022-08-25T12:13:43.728Z,72.10
2022-08-25T12:16:38.800Z,73.30
2022-08-25T12:19:28.876Z,72.80
2022-08-25T12:21:59.334Z,71.60
2022-08-25T12:24:51.007Z,71.20
2022-08-25T12:27:27.233Z,71.90
2022-08-25T12:30:01.464Z,70.90
2022-08-25T12:33:05.018Z,70.80
2022-08-25T12:35:34.246Z,70.20
2022-08-25T12:38:06.397Z,69.60
2022-08-25T12:40:40.188Z,69.10
2022-08-25T12:43:12.425Z,68.50
2022-08-25T12:45:45.650Z,69.30
2022-08-25T12:48:56.380Z,69.50
2022-08-25T12:51:27.930Z,69.10
2022-08-25T12:54:02.066Z,68.30
2022-08-25T12:56:39.451Z,69.20
2022-08-25T12:59:15.415Z,69.30
2022-08-25T13:02:08.150Z,68.50
2022-08-25T13:05:19.502Z,67.70
2022-08-25T13:08:02.609Z,68.40
2022-08-25T13:10:44.802Z,69.20
2022-08-25T13:13:23.673Z,68.80
2022-08-25T13:16:00.555Z,68.70
2022-08-25T13:18:30.797Z,67.50
2022-08-25T13:21:06.766Z,67.80
2022-08-25T13:23:38.095Z,67.20
2022-08-25T13:26:06.482Z,66.40
2022-08-25T13:28:40.787Z,65.70
2022-08-25T13:31:16.772Z,66.10
2022-08-25T13:33:54.743Z,65.00
2022-08-25T13:36:46.981Z,66.10
2022-08-25T13:39:45.177Z,67.10
2022-08-25T13:42:16.052Z,69.10
2022-08-25T13:44:52.353Z,68.70
2022-08-25T13:47:45.449Z,68.50
2022-08-25T13:50:29.789Z,68.00
2022-08-25T13:53:00.174Z,67.90
2022-08-25T13:55:38.325Z,67.10
2022-08-25T13:58:24.907Z,66.10
2022-08-25T14:01:22.994Z,65.80
2022-08-25T14:04:23.289Z,65.40
2022-08-25T14:07:13.021Z,65.30
2022-08-25T14:09:47.434Z,65.30
2022-08-25T14:12:32.901Z,65.00
2022-08-25T14:15:03.539Z,65.40
2022-08-25T14:17:40.227Z,64.90
2022-08-25T14:20:19.091Z,64.70
2022-08-25T14:22:47.027Z,64.50
2022-08-25T14:25:14.844Z,64.50
2022-08-25T14:28:03.656Z,65.00
2022-08-25T14:30:34.407Z,65.20
2022-08-25T14:33:04.537Z,65.50
2022-08-25T14:35:33.251Z,66.50
2022-08-25T14:38:02.873Z,65.80
2022-08-25T14:40:34.334Z,66.10
2022-08-25T14:43:02.436Z,65.90
2022-08-25T14:45:31.475Z,66.40
2022-08-25T14:48:05.282Z,65.70
2022-08-25T14:50:41.143Z,65.60
2022-08-25T14:53:11.298Z,64.20
2022-08-25T14:55:39.690Z,63.00
2022-08-25T14:58:07.735Z,64.10
2022-08-25T15:00:38.182Z,63.90
2022-08-25T15:03:07.766Z,64.10
2022-08-25T15:05:35.738Z,64.90
2022-08-25T15:08:23.133Z,63.60
2022-08-25T15:10:51.088Z,62.90
2022-08-25T15:13:18.931Z,63.40
2022-08-25T15:15:52.383Z,64.20
2022-08-25T15:18:22.844Z,64.70
2022-08-25T15:20:51.019Z,64.30
2022-08-25T15:23:19.342Z,62.10
2022-08-25T15:25:48.977Z,62.40
2022-08-25T15:28:22.301Z,62.70
2022-08-25T15:30:50.529Z,61.70
2022-08-25T15:33:18.703Z,61.90
2022-08-25T15:35:47.847Z,62.80
2022-08-25T15:38:17.775Z,63.20
2022-08-25T15:40:45.805Z,63.40
2022-08-25T15:43:14.532Z,63.60
2022-08-25T15:45:46.354Z,63.30
2022-08-25T15:48:14.337Z,62.50
2022-08-25T15:50:42.675Z,63.30
2022-08-25T15:53:11.774Z,64.10
2022-08-25T15:55:42.400Z,63.40
2022-08-25T15:58:12.002Z,64.80
2022-08-25T16:00:39.930Z,65.30
2022-08-25T16:03:09.695Z,65.60
2022-08-25T16:05:38.055Z,65.00
2022-08-25T16:08:06.264Z,65.30
2022-08-25T16:10:45.139Z,65.60
2022-08-25T16:13:13.396Z,66.40
2022-08-25T16:15:42.115Z,65.40
2022-08-25T16:18:10.914Z,64.90
2022-08-25T16:20:38.669Z,64.90
2022-08-25T16:23:07.276Z,64.80
2022-08-25T16:25:39.398Z,64.90
2022-08-25T16:28:08.714Z,65.20
2022-08-25T16:30:39.961Z,65.80
2022-08-25T16:33:08.380Z,66.00
2022-08-25T16:35:37.558Z,66.10
2022-08-25T16:38:08.623Z,66.10
2022-08-25T16:40:42.225Z,66.90
2022-08-25T16:43:12.564Z,66.90
2022-08-25T16:45:40.458Z,67.80
2022-08-25T16:48:08.585Z,68.60
2022-08-25T16:50:39.355Z,69.20
2022-08-25T16:53:24.823Z,69.10
2022-08-25T16:56:01.506Z,68.70
2022-08-25T16:58:30.616Z,68.30
2022-08-25T17:01:05.814Z,68.80
2022-08-25T17:03:35.855Z,69.00
2022-08-25T17:06:03.887Z,69.30
2022-08-25T17:08:33.263Z,69.30
2022-08-25T17:11:08.996Z,70.10
2022-08-25T17:13:39.924Z,70.60
2022-08-25T17:16:13.392Z,70.60
2022-08-25T17:18:43.138Z,70.70
2022-08-25T17:21:24.313Z,70.60
2022-08-25T17:23:53.986Z,70.90
2022-08-25T17:26:27.815Z,71.20
2022-08-25T17:28:59.404Z,71.00
2022-08-25T17:31:28.745Z,71.00
2022-08-25T17:33:57.903Z,71.60
2022-08-25T17:36:27.083Z,72.10
2022-08-25T17:38:55.515Z,72.10
2022-08-25T17:41:24.957Z,72.10
2022-08-25T17:43:52.736Z,72.10
2022-08-25T17:46:22.899Z,72.50
2022-08-25T17:48:52.250Z,73.30
2022-08-25T17:51:20.368Z,73.60
2022-08-25T17:53:49.592Z,74.00
2022-08-25T17:56:19.308Z,73.50
2022-08-25T17:58:48.161Z,74.00
2022-08-25T18:01:18.354Z,74.60
2022-08-25T18:03:47.540Z,74.50
2022-08-25T18:06:16.498Z,74.20
2022-08-25T18:08:52.205Z,74.30
2022-08-25T18:11:24.491Z,74.20
2022-08-25T18:13:53.685Z,74.60
2022-08-25T18:16:22.380Z,74.60
2022-08-25T18:18:52.781Z,74.40
2022-08-25T18:21:22.355Z,75.20
2022-08-25T18:23:50.382Z,75.20
2022-08-25T18:26:21.928Z,75.70
2022-08-25T18:28:53.708Z,75.70
2022-08-25T18:31:21.573Z,76.10
2022-08-25T18:33:50.957Z,76.50
2022-08-25T18:36:20.386Z,76.90
2022-08-25T18:39:06.526Z,77.40
2022-08-25T18:41:36.915Z,77.60
2022-08-25T18:44:06.462Z,77.90
2022-08-25T18:46:34.396Z,77.80
2022-08-25T18:49:03.566Z,77.90
2022-08-25T18:51:32.906Z,78.20
2022-08-25T18:54:01.641Z,78.90
2022-08-25T18:56:29.736Z,79.50
2022-08-25T18:58:58.564Z,79.70
2022-08-25T19:01:26.930Z,79.90
2022-08-25T19:03:56.401Z,79.70
2022-08-25T19:06:25.572Z,79.90
2022-08-25T19:08:53.646Z,79.40
2022-08-25T19:11:22.354Z,79.30
2022-08-25T19:13:50.539Z,79.50
2022-08-25T19:16:20.744Z,80.40
2022-08-25T19:18:52.310Z,81.00
2022-08-25T19:21:23.574Z,82.00
2022-08-25T19:23:53.563Z,82.30
2022-08-25T19:26:21.990Z,82.50
2022-08-25T19:28:50.546Z,82.40
2022-08-25T19:31:19.166Z,82.40
2022-08-25T19:33:47.386Z,82.10
2022-08-25T19:36:16.645Z,82.40
2022-08-25T19:38:45.020Z,82.60
2022-08-25T19:41:15.114Z,82.70
2022-08-25T19:43:56.449Z,82.50
2022-08-25T19:46:32.705Z,83.20
2022-08-25T19:49:06.937Z,83.60
2022-08-25T19:51:36.047Z,84.20
2022-08-25T19:54:03.889Z,84.40
2022-08-25T19:56:35.054Z,84.70
2022-08-25T19:59:04.702Z,84.90
2022-08-25T20:01:33.074Z,84.80
2022-08-25T20:04:03.377Z,85.00
2022-08-25T20:06:32.234Z,85.30
2022-08-25T20:09:00.771Z,85.60
2022-08-25T20:11:29.732Z,85.70
2022-08-25T20:14:03.645Z,85.80
2022-08-25T20:16:31.948Z,86.00
2022-08-25T20:19:00.205Z,86.50
2022-08-25T20:21:28.853Z,86.90
2022-08-25T20:24:16.127Z,87.40
2022-08-25T20:26:44.091Z,88.30
2022-08-25T20:29:13.814Z,90.10
2022-08-25T20:31:41.620Z,90.50
2022-08-25T20:34:11.546Z,90.90
2022-08-25T20:36:50.062Z,91.30
2022-08-25T20:39:18.379Z,91.40
2022-08-25T20:41:48.260Z,91.50
2022-08-25T20:44:18.370Z,91.70
2022-08-25T20:46:46.986Z,91.90
2022-08-25T20:49:14.971Z,92.00
2022-08-25T20:51:43.487Z,91.90
2022-08-25T20:54:14.229Z,92.10
2022-08-25T20:56:42.693Z,92.20
2022-08-25T20:59:11.600Z,92.10
2022-08-25T21:01:42.325Z,91.90
2022-08-25T21:04:15.136Z,91.30
2022-08-25T21:06:43.632Z,91.40
2022-08-25T21:09:15.800Z,91.30
2022-08-25T21:11:45.053Z,91.40
2022-08-25T21:14:13.970Z,91.40
2022-08-25T21:16:46.392Z,91.30
2022-08-25T21:19:15.927Z,91.30
2022-08-25T21:21:43.962Z,91.40
2022-08-25T21:24:12.434Z,91.50
2022-08-25T21:26:48.732Z,91.60
2022-08-25T21:29:17.931Z,91.60
2022-08-25T21:31:47.123Z,91.70
2022-08-25T21:34:17.779Z,91.60
2022-08-25T21:36:49.699Z,91.80
2022-08-25T21:39:17.759Z,92.00
2022-08-25T21:41:46.047Z,92.90
2022-08-25T21:44:14.378Z,93.40
2022-08-25T21:46:51.222Z,94.00
2022-08-25T21:49:24.798Z,94.50
2022-08-25T21:52:02.449Z,94.30
2022-08-25T21:54:32.435Z,93.80
2022-08-25T21:57:05.281Z,93.70
2022-08-25T21:59:37.224Z,93.80
2022-08-25T22:02:07.472Z,94.30
2022-08-25T22:04:42.036Z,94.20
2022-08-25T22:07:10.810Z,93.90
2022-08-25T22:09:39.079Z,93.80
2022-08-25T22:12:07.691Z,93.80
2022-08-25T22:14:37.554Z,93.90
2022-08-25T22:17:05.601Z,93.90
2022-08-25T22:19:38.167Z,94.10
2022-08-25T22:22:06.720Z,94.30
2022-08-25T22:24:37.788Z,94.40
2022-08-25T22:27:05.860Z,94.50
2022-08-25T22:29:44.252Z,94.60
2022-08-25T22:32:13.497Z,94.50
2022-08-25T22:34:43.725Z,94.80
2022-08-25T22:37:11.896Z,95.00
2022-08-25T22:39:40.335Z,95.10
2022-08-25T22:42:08.459Z,95.30
2022-08-25T22:44:38.727Z,95.40
2022-08-25T22:47:09.247Z,95.50
2022-08-25T22:49:39.825Z,95.60
2022-08-25T22:52:11.520Z,95.80
2022-08-25T22:54:41.751Z,96.20
2022-08-25T22:57:09.715Z,96.20
2022-08-25T22:59:38.117Z,96.00
2022-08-25T23:02:06.906Z,96.10
2022-08-25T23:04:36.764Z,96.10
2022-08-25T23:07:11.273Z,96.50
2022-08-25T23:09:39.344Z,96.80
2022-08-25T23:12:07.653Z,96.90
2022-08-25T23:14:36.620Z,97.00
2022-08-25T23:17:07.209Z,97.40
2022-08-25T23:19:35.487Z,97.50
2022-08-25T23:22:12.415Z,97.60
2022-08-25T23:24:43.472Z,97.80
2022-08-25T23:27:13.315Z,98.10
2022-08-25T23:29:43.465Z,98.40
2022-08-25T23:32:14.271Z,98.70
2022-08-25T23:34:46.685Z,98.90
2022-08-25T23:37:15.562Z,99.40
2022-08-25T23:39:45.651Z,99.60
2022-08-25T23:42:13.567Z,99.70
2022-08-25T23:44:41.302Z,99.60
2022-08-25T23:47:09.057Z,99.70
2022-08-25T23:49:40.159Z,99.80
2022-08-25T23:52:08.078Z,99.90
2022-08-25T23:54:36.286Z,99.90
2022-08-25T23:57:06.924Z,99.90
2022-08-25T23:59:34.910Z,99.90
